Terminal Aerodrome Forecast
Issued by NWS

Home | Current Version | Previous Version | Text Only | Print | Product List | Glossary On
Versions: 1 2 3 4 5 6 7 8 9 10 11 12 13 14 15 16 17 18 19
000
FTUS43 KEAX 220400 AAA
TAFMKC
TAF AMD
KMKC 220447Z 2205/2224 17014G23KT P6SM VCSH SCT010 OVC025
      TEMPO 2206/2209 5SM -DZ BKN008
     FM220900 18012G22KT 3SM -RA BR OVC008
     FM221700 21011KT 6SM BR OVC025=

USA.gov is the U.S. government's official web portal to all federal, state and local government web resources and services.